KHEY/HEY METAR and TAF weather

Enter ICAO airport designator
Station Type Date Time Source
KHEY METAR 2022/06/30 14:16 UTC NOAA

KHEY 301416Z AUTO 09005KT 10SM SCT008 25/23 A3016 RMK AO2 SLP213


Station Type Date Time Source
KHEY Decoded METAR 2022/06/30 14:16 UTC NOAA

Hanchey AHP / Ozark, AL, United States (KHEY) 31-21N 085-40W
Jun 30, 2022 - 10:16 AM EDT / 2022.06.30 1416 UTC
Wind: from the E (090 degrees) at 6 MPH (5 KT):0
Visibility: 10 mile(s):0
Sky conditions: partly cloudy
Temperature: 77 F (25 C)
Dew Point: 73 F (23 C)
Relative Humidity: 88%
Pressure (altimeter): 30.16 in. Hg (1021 hPa)
ob: KHEY 301416Z AUTO 09005KT 10SM SCT008 25/23 A3016 RMK AO2 SLP213
cycle: 14

Station Type Date Time Source
KHEY TAF UTC NOAA

Error!

Example: see airport list